Abejones, Mexico

12:54 PM CDT on October 19, 2018 (GMT -0500)
Playa Saladita, Guerrero, Mexico | | Change Station

Elev 43 ft 17.85 °N, 101.77 °W | Updated 1 minute ago

Partly Cloudy
Partly Cloudy
87.4 °F
Feels Like 102 °F
N
1.8
Wind Variable Wind from SW
Gusts 3.4 mph

Today
High -- | Low -- °F
--% Chance of Precip.
Yesterday
High -- | Low -- °F
Precip. -- in
Pressure 29.89 in
Visibility 7.0 miles
Clouds Scattered Clouds 2000 ft
Scattered Clouds 8000 ft
Mostly Cloudy 25000 ft
Heat Index 102 °F
Dew Point 79 °F
Humidity 76%
Rainfall 0.00 in
Snow Depth Not available.
7:40 AM 7:21 PM
Waxing Gibbous, 77% visible
METAR MMZH 191640Z 16008KT 7SM SCT020 SCT080 BKN250 32/24 A2989 RMK 8/132 HZY
Pressure 29.89 in
Visibility 7.0 miles
Clouds Scattered Clouds 2000 ft
Scattered Clouds 8000 ft
Mostly Cloudy 25000 ft
Heat Index 102 °F
Dew Point 79 °F
Humidity 76%
Rainfall 0.00 in
Snow Depth Not available.
7:40 AM 7:21 PM
Waxing Gibbous, 77% visible
METAR MMZH 191640Z 16008KT 7SM SCT020 SCT080 BKN250 32/24 A2989 RMK 8/132 HZY

Get Severe Weather Alerts

Thanks for signing up!

Be on the lookout for a verification email in your inbox.

You'll start receiving the daily forecast at 6 AM.

×

10-Day Weather Forecast

No radar image for this location.
×

Almanac

Astronomy

Oct. 19, 2018 Rise Set
Actual Time
Civil Twilight
Nautical Twilight
Astronomical Twilight
Moon
Length of Visible Light
Length of Day
Tomorrow will be .
, % of the Moon is Illuminated

Today's Extremes

Country Highs Country Lows

Community

WunderPhotos

Category 6

Welcome to Category 6. This is the collective home for Weather Underground's featured writeups by Dr. Jeff Masters (right), Bob Henson (left), Chris Burt, and other regular contributors.

Nearby

Air Quality

  Air Quality AQ Index Pollutant
Not available.

Snow Depth

Station Depth Elevation

Earthquake Activity

City Distance Mag. Time & Date
Minimum magnitude displayed is 2.5.

Coastal Water Temperatures

Place Temperature

Stations

Nearby Weather Stations

Station Location Temp. Windchill Dew Point Humidity Wind Precip. Elev Updated Type